sensor_id;sensor_type;location;lat;lon;timestamp;P1;durP1;ratioP1;P2;durP2;ratioP2
7158;SDS011;63175;52.374;13.132;2022-09-30T00:01:24;4.37;;;3.97;;
7158;SDS011;63175;52.374;13.132;2022-09-30T00:03:51;5.50;;;4.47;;
7158;SDS011;63175;52.374;13.132;2022-09-30T00:06:19;5.07;;;4.67;;
7158;SDS011;63175;52.374;13.132;2022-09-30T00:08:47;4.00;;;3.60;;
7158;SDS011;63175;52.374;13.132;2022-09-30T00:11:14;4.83;;;4.47;;
7158;SDS011;63175;52.374;13.132;2022-09-30T00:13:45;4.87;;;4.47;;
7158;SDS011;63175;52.374;13.132;2022-09-30T00:16:14;5.67;;;5.17;;
7158;SDS011;63175;52.374;13.132;2022-09-30T00:18:42;3.93;;;3.73;;
7158;SDS011;63175;52.374;13.132;2022-09-30T00:21:10;3.30;;;3.10;;
7158;SDS011;63175;52.374;13.132;2022-09-30T00:23:39;4.40;;;4.00;;
7158;SDS011;63175;52.374;13.132;2022-09-30T00:26:10;4.87;;;4.47;;
7158;SDS011;63175;52.374;13.132;2022-09-30T00:28:39;4.60;;;4.20;;
7158;SDS011;63175;52.374;13.132;2022-09-30T00:31:07;5.03;;;4.53;;
7158;SDS011;63175;52.374;13.132;2022-09-30T00:33:37;3.73;;;3.50;;
7158;SDS011;63175;52.374;13.132;2022-09-30T00:36:03;4.80;;;4.40;;
7158;SDS011;63175;52.374;13.132;2022-09-30T00:38:31;4.80;;;4.40;;
7158;SDS011;63175;52.374;13.132;2022-09-30T00:40:58;4.13;;;3.83;;
7158;SDS011;63175;52.374;13.132;2022-09-30T00:43:40;3.80;;;3.50;;
7158;SDS011;63175;52.374;13.132;2022-09-30T00:46:14;4.10;;;3.80;;
7158;SDS011;63175;52.374;13.132;2022-09-30T00:48:43;4.60;;;4.20;;
7158;SDS011;63175;52.374;13.132;2022-09-30T00:51:14;5.20;;;4.80;;
7158;SDS011;63175;52.374;13.132;2022-09-30T00:53:46;4.40;;;4.10;;
7158;SDS011;63175;52.374;13.132;2022-09-30T00:56:17;4.97;;;4.57;;
7158;SDS011;63175;52.374;13.132;2022-09-30T00:58:49;5.33;;;4.83;;
7158;SDS011;63175;52.374;13.132;2022-09-30T01:01:19;4.90;;;4.40;;
7158;SDS011;63175;52.374;13.132;2022-09-30T01:03:47;4.20;;;3.90;;
7158;SDS011;63175;52.374;13.132;2022-09-30T01:06:17;4.57;;;4.17;;
7158;SDS011;63175;52.374;13.132;2022-09-30T01:08:46;4.67;;;4.20;;
7158;SDS011;63175;52.374;13.132;2022-09-30T01:11:13;3.97;;;3.70;;
7158;SDS011;63175;52.374;13.132;2022-09-30T01:13:41;4.17;;;3.73;;
7158;SDS011;63175;52.374;13.132;2022-09-30T01:16:27;4.20;;;3.90;;
7158;SDS011;63175;52.374;13.132;2022-09-30T01:19:15;4.23;;;3.93;;
7158;SDS011;63175;52.374;13.132;2022-09-30T01:22:09;3.57;;;3.37;;
7158;SDS011;63175;52.374;13.132;2022-09-30T01:24:53;3.90;;;3.60;;
7158;SDS011;63175;52.374;13.132;2022-09-30T01:30:42;4.87;;;4.47;;
7158;SDS011;63175;52.374;13.132;2022-09-30T01:33:24;4.70;;;4.40;;
7158;SDS011;63175;52.374;13.132;2022-09-30T01:36:05;5.63;;;5.10;;
7158;SDS011;63175;52.374;13.132;2022-09-30T01:38:45;4.53;;;4.13;;
7158;SDS011;63175;52.374;13.132;2022-09-30T01:41:18;4.10;;;3.80;;
7158;SDS011;63175;52.374;13.132;2022-09-30T01:43:53;5.13;;;4.13;;
7158;SDS011;63175;52.374;13.132;2022-09-30T01:46:31;4.07;;;3.77;;
7158;SDS011;63175;52.374;13.132;2022-09-30T01:49:05;4.27;;;3.97;;
7158;SDS011;63175;52.374;13.132;2022-09-30T01:51:36;4.40;;;4.10;;
7158;SDS011;63175;52.374;13.132;2022-09-30T01:54:08;4.40;;;4.10;;
7158;SDS011;63175;52.374;13.132;2022-09-30T01:56:41;4.30;;;3.90;;
7158;SDS011;63175;52.374;13.132;2022-09-30T01:59:12;5.00;;;4.43;;
7158;SDS011;63175;52.374;13.132;2022-09-30T02:01:45;5.37;;;4.33;;
7158;SDS011;63175;52.374;13.132;2022-09-30T02:04:16;4.00;;;3.73;;
7158;SDS011;63175;52.374;13.132;2022-09-30T02:06:50;4.27;;;3.97;;
7158;SDS011;63175;52.374;13.132;2022-09-30T02:09:22;4.00;;;3.70;;
7158;SDS011;63175;52.374;13.132;2022-09-30T02:11:53;4.30;;;4.00;;
7158;SDS011;63175;52.374;13.132;2022-09-30T02:14:22;4.47;;;4.17;;
7158;SDS011;63175;52.374;13.132;2022-09-30T02:16:55;3.90;;;3.60;;
7158;SDS011;63175;52.374;13.132;2022-09-30T02:19:28;4.73;;;4.33;;
7158;SDS011;63175;52.374;13.132;2022-09-30T02:22:00;4.67;;;4.27;;
7158;SDS011;63175;52.374;13.132;2022-09-30T02:24:33;4.67;;;4.37;;
7158;SDS011;63175;52.374;13.132;2022-09-30T02:27:02;5.60;;;4.20;;
7158;SDS011;63175;52.374;13.132;2022-09-30T02:29:37;4.37;;;4.07;;
7158;SDS011;63175;52.374;13.132;2022-09-30T02:32:12;5.83;;;4.30;;
7158;SDS011;63175;52.374;13.132;2022-09-30T02:34:44;4.67;;;4.27;;
7158;SDS011;63175;52.374;13.132;2022-09-30T02:37:16;4.53;;;4.13;;
7158;SDS011;63175;52.374;13.132;2022-09-30T02:39:49;4.73;;;4.33;;
7158;SDS011;63175;52.374;13.132;2022-09-30T02:42:20;4.63;;;4.23;;
7158;SDS011;63175;52.374;13.132;2022-09-30T02:44:52;4.33;;;3.93;;
7158;SDS011;63175;52.374;13.132;2022-09-30T02:47:24;4.27;;;3.97;;
7158;SDS011;63175;52.374;13.132;2022-09-30T02:49:57;4.90;;;4.50;;
7158;SDS011;63175;52.374;13.132;2022-09-30T02:52:31;3.70;;;3.50;;
7158;SDS011;63175;52.374;13.132;2022-09-30T02:55:11;3.83;;;3.60;;
7158;SDS011;63175;52.374;13.132;2022-09-30T02:57:45;4.70;;;4.30;;
7158;SDS011;63175;52.374;13.132;2022-09-30T03:00:20;4.37;;;4.00;;
7158;SDS011;63175;52.374;13.132;2022-09-30T03:02:48;3.50;;;3.30;;
7158;SDS011;63175;52.374;13.132;2022-09-30T03:05:19;4.90;;;4.20;;
7158;SDS011;63175;52.374;13.132;2022-09-30T03:07:46;4.30;;;3.90;;
7158;SDS011;63175;52.374;13.132;2022-09-30T03:10:13;4.00;;;3.77;;
7158;SDS011;63175;52.374;13.132;2022-09-30T03:12:43;5.07;;;4.60;;
7158;SDS011;63175;52.374;13.132;2022-09-30T03:15:21;4.43;;;3.80;;
7158;SDS011;63175;52.374;13.132;2022-09-30T03:18:05;4.20;;;3.80;;
7158;SDS011;63175;52.374;13.132;2022-09-30T03:20:51;4.50;;;4.20;;
7158;SDS011;63175;52.374;13.132;2022-09-30T03:23:36;3.93;;;3.63;;
7158;SDS011;63175;52.374;13.132;2022-09-30T03:26:17;3.67;;;3.47;;
7158;SDS011;63175;52.374;13.132;2022-09-30T03:29:00;3.60;;;3.40;;
7158;SDS011;63175;52.374;13.132;2022-09-30T03:31:38;3.30;;;3.10;;
7158;SDS011;63175;52.374;13.132;2022-09-30T03:34:16;4.90;;;4.50;;
7158;SDS011;63175;52.374;13.132;2022-09-30T03:36:54;4.07;;;3.77;;
7158;SDS011;63175;52.374;13.132;2022-09-30T03:39:28;4.03;;;3.73;;
7158;SDS011;63175;52.374;13.132;2022-09-30T03:42:04;4.83;;;4.43;;
7158;SDS011;63175;52.374;13.132;2022-09-30T03:44:37;6.07;;;4.13;;
7158;SDS011;63175;52.374;13.132;2022-09-30T03:47:10;5.53;;;5.10;;
7158;SDS011;63175;52.374;13.132;2022-09-30T03:49:42;4.20;;;3.80;;
7158;SDS011;63175;52.374;13.132;2022-09-30T03:52:14;5.23;;;4.57;;
7158;SDS011;63175;52.374;13.132;2022-09-30T03:54:47;5.17;;;4.70;;
7158;SDS011;63175;52.374;13.132;2022-09-30T03:57:16;4.73;;;4.33;;
7158;SDS011;63175;52.374;13.132;2022-09-30T03:59:43;5.90;;;4.70;;
7158;SDS011;63175;52.374;13.132;2022-09-30T04:02:10;4.47;;;4.17;;
7158;SDS011;63175;52.374;13.132;2022-09-30T04:04:38;4.50;;;4.10;;
7158;SDS011;63175;52.374;13.132;2022-09-30T04:07:07;4.37;;;4.03;;
7158;SDS011;63175;52.374;13.132;2022-09-30T04:09:34;4.53;;;4.23;;
7158;SDS011;63175;52.374;13.132;2022-09-30T04:12:01;4.13;;;3.77;;
7158;SDS011;63175;52.374;13.132;2022-09-30T04:14:29;3.90;;;3.60;;
7158;SDS011;63175;52.374;13.132;2022-09-30T04:16:56;4.50;;;4.10;;
7158;SDS011;63175;52.374;13.132;2022-09-30T04:19:22;4.77;;;4.43;;
7158;SDS011;63175;52.374;13.132;2022-09-30T04:21:50;5.03;;;4.60;;
7158;SDS011;63175;52.374;13.132;2022-09-30T04:24:19;7.23;;;4.97;;
7158;SDS011;63175;52.374;13.132;2022-09-30T04:26:47;4.90;;;4.50;;
7158;SDS011;63175;52.374;13.132;2022-09-30T04:29:14;5.40;;;4.80;;
7158;SDS011;63175;52.374;13.132;2022-09-30T04:31:41;4.97;;;4.57;;
7158;SDS011;63175;52.374;13.132;2022-09-30T04:34:08;5.13;;;4.67;;
7158;SDS011;63175;52.374;13.132;2022-09-30T04:36:35;4.70;;;4.40;;
7158;SDS011;63175;52.374;13.132;2022-09-30T04:39:02;4.03;;;3.77;;
7158;SDS011;63175;52.374;13.132;2022-09-30T04:41:31;4.50;;;4.10;;
7158;SDS011;63175;52.374;13.132;2022-09-30T04:43:58;4.23;;;3.93;;
7158;SDS011;63175;52.374;13.132;2022-09-30T04:46:30;4.90;;;4.43;;
7158;SDS011;63175;52.374;13.132;2022-09-30T04:49:00;5.13;;;4.63;;
7158;SDS011;63175;52.374;13.132;2022-09-30T04:51:28;4.47;;;4.10;;
7158;SDS011;63175;52.374;13.132;2022-09-30T04:53:55;3.80;;;3.50;;
7158;SDS011;63175;52.374;13.132;2022-09-30T04:56:21;4.37;;;4.03;;
7158;SDS011;63175;52.374;13.132;2022-09-30T04:58:51;5.17;;;4.57;;
7158;SDS011;63175;52.374;13.132;2022-09-30T05:01:18;4.33;;;4.03;;
7158;SDS011;63175;52.374;13.132;2022-09-30T05:03:45;4.00;;;3.70;;
7158;SDS011;63175;52.374;13.132;2022-09-30T05:06:12;4.30;;;3.90;;
7158;SDS011;63175;52.374;13.132;2022-09-30T05:08:39;4.57;;;4.17;;
7158;SDS011;63175;52.374;13.132;2022-09-30T05:11:09;3.10;;;2.90;;
7158;SDS011;63175;52.374;13.132;2022-09-30T05:13:39;3.30;;;3.10;;
7158;SDS011;63175;52.374;13.132;2022-09-30T05:16:08;3.37;;;3.17;;
7158;SDS011;63175;52.374;13.132;2022-09-30T05:18:35;3.53;;;3.23;;
7158;SDS011;63175;52.374;13.132;2022-09-30T05:21:03;5.23;;;4.57;;
7158;SDS011;63175;52.374;13.132;2022-09-30T05:23:31;4.27;;;3.97;;
7158;SDS011;63175;52.374;13.132;2022-09-30T05:25:58;7.90;;;4.97;;
7158;SDS011;63175;52.374;13.132;2022-09-30T05:28:27;5.13;;;4.70;;
7158;SDS011;63175;52.374;13.132;2022-09-30T05:30:56;4.37;;;4.07;;
7158;SDS011;63175;52.374;13.132;2022-09-30T05:33:26;4.60;;;4.20;;
7158;SDS011;63175;52.374;13.132;2022-09-30T05:35:54;3.87;;;3.57;;
7158;SDS011;63175;52.374;13.132;2022-09-30T05:38:23;5.17;;;4.67;;
7158;SDS011;63175;52.374;13.132;2022-09-30T05:40:50;4.03;;;3.73;;
7158;SDS011;63175;52.374;13.132;2022-09-30T05:43:17;4.63;;;3.80;;
7158;SDS011;63175;52.374;13.132;2022-09-30T05:45:50;4.53;;;3.57;;
7158;SDS011;63175;52.374;13.132;2022-09-30T05:48:18;3.63;;;3.33;;
7158;SDS011;63175;52.374;13.132;2022-09-30T05:50:46;3.70;;;3.50;;
7158;SDS011;63175;52.374;13.132;2022-09-30T05:53:14;4.70;;;4.10;;
7158;SDS011;63175;52.374;13.132;2022-09-30T05:55:43;4.00;;;3.80;;
7158;SDS011;63175;52.374;13.132;2022-09-30T05:58:11;4.60;;;4.20;;
7158;SDS011;63175;52.374;13.132;2022-09-30T06:00:39;5.80;;;4.43;;
7158;SDS011;63175;52.374;13.132;2022-09-30T06:03:06;4.07;;;3.80;;
7158;SDS011;63175;52.374;13.132;2022-09-30T06:05:33;4.13;;;3.83;;
7158;SDS011;63175;52.374;13.132;2022-09-30T06:08:02;5.20;;;4.70;;
7158;SDS011;63175;52.374;13.132;2022-09-30T06:10:31;7.97;;;5.47;;
7158;SDS011;63175;52.374;13.132;2022-09-30T06:12:58;7.13;;;4.17;;
7158;SDS011;63175;52.374;13.132;2022-09-30T06:15:26;4.50;;;4.10;;
7158;SDS011;63175;52.374;13.132;2022-09-30T06:17:53;5.10;;;4.50;;
7158;SDS011;63175;52.374;13.132;2022-09-30T06:20:20;4.30;;;3.90;;
7158;SDS011;63175;52.374;13.132;2022-09-30T06:22:47;4.10;;;3.80;;
7158;SDS011;63175;52.374;13.132;2022-09-30T06:25:15;5.10;;;4.60;;
7158;SDS011;63175;52.374;13.132;2022-09-30T06:27:43;4.87;;;4.47;;
7158;SDS011;63175;52.374;13.132;2022-09-30T06:30:11;4.57;;;4.17;;
7158;SDS011;63175;52.374;13.132;2022-09-30T06:32:38;5.40;;;4.90;;
7158;SDS011;63175;52.374;13.132;2022-09-30T06:35:05;5.43;;;4.93;;
7158;SDS011;63175;52.374;13.132;2022-09-30T06:37:32;6.53;;;5.80;;
7158;SDS011;63175;52.374;13.132;2022-09-30T06:40:01;4.70;;;4.30;;
7158;SDS011;63175;52.374;13.132;2022-09-30T06:42:30;5.40;;;4.90;;
7158;SDS011;63175;52.374;13.132;2022-09-30T06:44:57;5.90;;;5.37;;
7158;SDS011;63175;52.374;13.132;2022-09-30T06:47:24;5.00;;;4.60;;
7158;SDS011;63175;52.374;13.132;2022-09-30T06:49:51;5.83;;;5.33;;
7158;SDS011;63175;52.374;13.132;2022-09-30T06:52:22;6.90;;;6.20;;
7158;SDS011;63175;52.374;13.132;2022-09-30T06:54:49;7.30;;;6.67;;
7158;SDS011;63175;52.374;13.132;2022-09-30T06:57:17;7.13;;;6.43;;
7158;SDS011;63175;52.374;13.132;2022-09-30T06:59:47;9.17;;;8.27;;
7158;SDS011;63175;52.374;13.132;2022-09-30T07:02:14;13.00;;;10.77;;
7158;SDS011;63175;52.374;13.132;2022-09-30T07:04:41;20.97;;;14.13;;
7158;SDS011;63175;52.374;13.132;2022-09-30T07:07:08;24.57;;;14.40;;
7158;SDS011;63175;52.374;13.132;2022-09-30T07:09:36;18.63;;;11.83;;
7158;SDS011;63175;52.374;13.132;2022-09-30T07:12:03;12.90;;;9.97;;
7158;SDS011;63175;52.374;13.132;2022-09-30T07:14:30;13.73;;;9.87;;
7158;SDS011;63175;52.374;13.132;2022-09-30T07:16:59;11.03;;;8.80;;
7158;SDS011;63175;52.374;13.132;2022-09-30T07:19:27;9.70;;;7.53;;
7158;SDS011;63175;52.374;13.132;2022-09-30T07:21:54;8.23;;;7.40;;
7158;SDS011;63175;52.374;13.132;2022-09-30T07:24:41;7.90;;;7.10;;
7158;SDS011;63175;52.374;13.132;2022-09-30T07:27:08;9.17;;;8.27;;
7158;SDS011;63175;52.374;13.132;2022-09-30T07:29:37;9.00;;;7.30;;
7158;SDS011;63175;52.374;13.132;2022-09-30T07:32:06;6.57;;;5.97;;
7158;SDS011;63175;52.374;13.132;2022-09-30T07:34:33;6.27;;;5.67;;
7158;SDS011;63175;52.374;13.132;2022-09-30T07:37:00;7.23;;;6.03;;
7158;SDS011;63175;52.374;13.132;2022-09-30T07:39:27;6.30;;;5.70;;
7158;SDS011;63175;52.374;13.132;2022-09-30T07:41:55;7.23;;;6.37;;
7158;SDS011;63175;52.374;13.132;2022-09-30T07:44:22;6.73;;;6.10;;
7158;SDS011;63175;52.374;13.132;2022-09-30T07:46:50;7.17;;;6.50;;
7158;SDS011;63175;52.374;13.132;2022-09-30T07:49:18;6.50;;;6.00;;
7158;SDS011;63175;52.374;13.132;2022-09-30T07:51:48;5.57;;;5.17;;
7158;SDS011;63175;52.374;13.132;2022-09-30T07:54:18;6.67;;;5.47;;
7158;SDS011;63175;52.374;13.132;2022-09-30T07:56:47;6.40;;;5.70;;
7158;SDS011;63175;52.374;13.132;2022-09-30T07:59:15;5.80;;;5.20;;
7158;SDS011;63175;52.374;13.132;2022-09-30T08:01:43;7.43;;;5.63;;
7158;SDS011;63175;52.374;13.132;2022-09-30T08:04:11;6.07;;;5.47;;
7158;SDS011;63175;52.374;13.132;2022-09-30T08:06:41;7.80;;;7.00;;
7158;SDS011;63175;52.374;13.132;2022-09-30T08:09:10;7.30;;;6.60;;
7158;SDS011;63175;52.374;13.132;2022-09-30T08:11:38;5.90;;;5.40;;
7158;SDS011;63175;52.374;13.132;2022-09-30T08:14:07;7.40;;;5.70;;
7158;SDS011;63175;52.374;13.132;2022-09-30T08:16:38;7.30;;;6.60;;
7158;SDS011;63175;52.374;13.132;2022-09-30T08:19:05;6.20;;;5.60;;
7158;SDS011;63175;52.374;13.132;2022-09-30T08:21:31;7.07;;;5.83;;
7158;SDS011;63175;52.374;13.132;2022-09-30T08:24:00;5.90;;;5.30;;
7158;SDS011;63175;52.374;13.132;2022-09-30T08:26:29;7.43;;;6.20;;
7158;SDS011;63175;52.374;13.132;2022-09-30T08:28:56;6.47;;;5.90;;
7158;SDS011;63175;52.374;13.132;2022-09-30T08:31:23;5.70;;;5.30;;
7158;SDS011;63175;52.374;13.132;2022-09-30T08:33:50;5.20;;;4.80;;
7158;SDS011;63175;52.374;13.132;2022-09-30T08:36:18;6.20;;;5.60;;
7158;SDS011;63175;52.374;13.132;2022-09-30T08:38:46;7.30;;;6.70;;
7158;SDS011;63175;52.374;13.132;2022-09-30T08:41:19;7.07;;;6.37;;
7158;SDS011;63175;52.374;13.132;2022-09-30T08:43:57;5.00;;;4.60;;
7158;SDS011;63175;52.374;13.132;2022-09-30T08:46:34;6.37;;;5.77;;
7158;SDS011;63175;52.374;13.132;2022-09-30T08:49:12;5.00;;;4.40;;
7158;SDS011;63175;52.374;13.132;2022-09-30T08:51:54;6.37;;;5.80;;
7158;SDS011;63175;52.374;13.132;2022-09-30T08:54:25;4.97;;;4.53;;
7158;SDS011;63175;52.374;13.132;2022-09-30T08:56:58;5.40;;;4.90;;
7158;SDS011;63175;52.374;13.132;2022-09-30T08:59:28;5.23;;;4.40;;
7158;SDS011;63175;52.374;13.132;2022-09-30T09:02:00;6.63;;;6.03;;
7158;SDS011;63175;52.374;13.132;2022-09-30T09:04:38;10.10;;;4.83;;
7158;SDS011;63175;52.374;13.132;2022-09-30T09:07:07;6.10;;;4.70;;
7158;SDS011;63175;52.374;13.132;2022-09-30T09:09:42;4.03;;;3.73;;
7158;SDS011;63175;52.374;13.132;2022-09-30T09:12:23;4.00;;;3.70;;
7158;SDS011;63175;52.374;13.132;2022-09-30T09:15:04;4.30;;;4.00;;
7158;SDS011;63175;52.374;13.132;2022-09-30T09:17:49;14.13;;;5.30;;
7158;SDS011;63175;52.374;13.132;2022-09-30T09:20:28;5.57;;;5.17;;
7158;SDS011;63175;52.374;13.132;2022-09-30T09:22:59;4.47;;;4.17;;
7158;SDS011;63175;52.374;13.132;2022-09-30T09:25:28;3.00;;;2.70;;
7158;SDS011;63175;52.374;13.132;2022-09-30T09:27:57;3.80;;;3.50;;
7158;SDS011;63175;52.374;13.132;2022-09-30T09:30:26;5.30;;;4.73;;
7158;SDS011;63175;52.374;13.132;2022-09-30T09:33:00;2.90;;;2.70;;
7158;SDS011;63175;52.374;13.132;2022-09-30T09:35:40;3.47;;;3.17;;
7158;SDS011;63175;52.374;13.132;2022-09-30T09:38:14;2.57;;;2.37;;
7158;SDS011;63175;52.374;13.132;2022-09-30T09:40:52;2.50;;;2.30;;
7158;SDS011;63175;52.374;13.132;2022-09-30T09:43:40;3.00;;;2.47;;
7158;SDS011;63175;52.374;13.132;2022-09-30T09:46:16;2.47;;;2.37;;
7158;SDS011;63175;52.374;13.132;2022-09-30T09:48:47;2.70;;;2.20;;
7158;SDS011;63175;52.374;13.132;2022-09-30T09:51:17;1.90;;;1.80;;
7158;SDS011;63175;52.374;13.132;2022-09-30T09:53:48;1.90;;;1.80;;
7158;SDS011;63175;52.374;13.132;2022-09-30T09:56:18;1.50;;;1.40;;
7158;SDS011;63175;52.374;13.132;2022-09-30T09:59:06;2.00;;;1.90;;
7158;SDS011;63175;52.374;13.132;2022-09-30T10:01:38;6.73;;;1.97;;
7158;SDS011;63175;52.374;13.132;2022-09-30T10:04:12;1.60;;;1.50;;
7158;SDS011;63175;52.374;13.132;2022-09-30T10:06:42;1.53;;;1.30;;
7158;SDS011;63175;52.374;13.132;2022-09-30T10:09:21;1.50;;;1.40;;
7158;SDS011;63175;52.374;13.132;2022-09-30T10:11:50;1.70;;;1.33;;
7158;SDS011;63175;52.374;13.132;2022-09-30T10:14:39;1.97;;;1.33;;
7158;SDS011;63175;52.374;13.132;2022-09-30T10:17:17;1.77;;;1.27;;
7158;SDS011;63175;52.374;13.132;2022-09-30T10:19:47;1.60;;;1.40;;
7158;SDS011;63175;52.374;13.132;2022-09-30T10:22:17;1.60;;;1.50;;
7158;SDS011;63175;52.374;13.132;2022-09-30T10:24:45;2.30;;;1.97;;
7158;SDS011;63175;52.374;13.132;2022-09-30T10:27:24;2.20;;;1.30;;
7158;SDS011;63175;52.374;13.132;2022-09-30T10:29:54;1.03;;;0.80;;
7158;SDS011;63175;52.374;13.132;2022-09-30T10:32:21;0.97;;;0.97;;
7158;SDS011;63175;52.374;13.132;2022-09-30T10:34:53;2.00;;;1.45;;
7158;SDS011;63175;52.374;13.132;2022-09-30T10:37:23;1.30;;;1.08;;
7158;SDS011;63175;52.374;13.132;2022-09-30T10:39:52;1.73;;;1.00;;
7158;SDS011;63175;52.374;13.132;2022-09-30T10:42:23;1.67;;;1.48;;
7158;SDS011;63175;52.374;13.132;2022-09-30T10:44:53;1.40;;;1.30;;
7158;SDS011;63175;52.374;13.132;2022-09-30T10:47:23;0.98;;;0.98;;
7158;SDS011;63175;52.374;13.132;2022-09-30T10:49:52;1.33;;;1.23;;
7158;SDS011;63175;52.374;13.132;2022-09-30T10:52:22;1.08;;;1.08;;
7158;SDS011;63175;52.374;13.132;2022-09-30T10:54:52;0.90;;;0.70;;
7158;SDS011;63175;52.374;13.132;2022-09-30T10:57:21;0.90;;;0.90;;
7158;SDS011;63175;52.374;13.132;2022-09-30T10:59:49;1.05;;;1.05;;
7158;SDS011;63175;52.374;13.132;2022-09-30T11:02:22;0.98;;;0.98;;
7158;SDS011;63175;52.374;13.132;2022-09-30T11:04:57;2.53;;;0.98;;
7158;SDS011;63175;52.374;13.132;2022-09-30T11:07:31;2.30;;;1.15;;
7158;SDS011;63175;52.374;13.132;2022-09-30T11:10:03;1.15;;;0.98;;
7158;SDS011;63175;52.374;13.132;2022-09-30T11:12:38;1.63;;;0.97;;
7158;SDS011;63175;52.374;13.132;2022-09-30T11:15:11;1.20;;;1.10;;
7158;SDS011;63175;52.374;13.132;2022-09-30T11:17:46;1.00;;;0.73;;
7158;SDS011;63175;52.374;13.132;2022-09-30T11:20:18;1.40;;;1.27;;
7158;SDS011;63175;52.374;13.132;2022-09-30T11:22:51;1.40;;;1.30;;
7158;SDS011;63175;52.374;13.132;2022-09-30T11:25:23;2.00;;;1.47;;
7158;SDS011;63175;52.374;13.132;2022-09-30T11:27:59;1.23;;;1.13;;
7158;SDS011;63175;52.374;13.132;2022-09-30T11:30:41;3.30;;;2.20;;
7158;SDS011;63175;52.374;13.132;2022-09-30T11:33:21;2.93;;;1.70;;
7158;SDS011;63175;52.374;13.132;2022-09-30T11:36:01;1.73;;;1.63;;
7158;SDS011;63175;52.374;13.132;2022-09-30T11:38:39;1.37;;;1.20;;
7158;SDS011;63175;52.374;13.132;2022-09-30T11:41:23;1.63;;;0.90;;
7158;SDS011;63175;52.374;13.132;2022-09-30T11:43:55;6.00;;;1.70;;
7158;SDS011;63175;52.374;13.132;2022-09-30T11:46:49;1.60;;;1.50;;
7158;SDS011;63175;52.374;13.132;2022-09-30T11:49:45;2.57;;;1.50;;
7158;SDS011;63175;52.374;13.132;2022-09-30T11:52:23;1.43;;;1.30;;
7158;SDS011;63175;52.374;13.132;2022-09-30T11:55:06;2.27;;;1.60;;
7158;SDS011;63175;52.374;13.132;2022-09-30T11:57:56;8.30;;;1.27;;
7158;SDS011;63175;52.374;13.132;2022-09-30T12:00:26;2.03;;;1.90;;
7158;SDS011;63175;52.374;13.132;2022-09-30T12:02:55;1.77;;;1.67;;
7158;SDS011;63175;52.374;13.132;2022-09-30T12:05:29;1.50;;;1.40;;
7158;SDS011;63175;52.374;13.132;2022-09-30T12:08:00;1.30;;;1.20;;
7158;SDS011;63175;52.374;13.132;2022-09-30T12:10:32;1.43;;;1.27;;
7158;SDS011;63175;52.374;13.132;2022-09-30T12:13:03;3.33;;;1.30;;
7158;SDS011;63175;52.374;13.132;2022-09-30T12:15:36;1.50;;;1.20;;
7158;SDS011;63175;52.374;13.132;2022-09-30T12:18:08;2.20;;;1.00;;
7158;SDS011;63175;52.374;13.132;2022-09-30T12:20:42;2.60;;;1.00;;
7158;SDS011;63175;52.374;13.132;2022-09-30T12:23:13;2.20;;;0.97;;
7158;SDS011;63175;52.374;13.132;2022-09-30T12:25:45;1.00;;;1.00;;
7158;SDS011;63175;52.374;13.132;2022-09-30T12:28:20;1.03;;;1.03;;
7158;SDS011;63175;52.374;13.132;2022-09-30T12:31:23;1.30;;;0.90;;
7158;SDS011;63175;52.374;13.132;2022-09-30T12:34:05;1.00;;;0.80;;
7158;SDS011;63175;52.374;13.132;2022-09-30T12:36:47;1.93;;;1.30;;
7158;SDS011;63175;52.374;13.132;2022-09-30T12:39:40;1.20;;;1.10;;
7158;SDS011;63175;52.374;13.132;2022-09-30T12:42:38;0.83;;;0.80;;
7158;SDS011;63175;52.374;13.132;2022-09-30T12:45:19;1.70;;;0.83;;
7158;SDS011;63175;52.374;13.132;2022-09-30T12:47:59;1.30;;;1.20;;
7158;SDS011;63175;52.374;13.132;2022-09-30T12:50:31;2.67;;;1.67;;
7158;SDS011;63175;52.374;13.132;2022-09-30T12:53:11;1.20;;;1.10;;
7158;SDS011;63175;52.374;13.132;2022-09-30T12:55:43;1.83;;;1.13;;
7158;SDS011;63175;52.374;13.132;2022-09-30T12:58:16;0.90;;;0.60;;
7158;SDS011;63175;52.374;13.132;2022-09-30T13:00:57;1.93;;;1.13;;
7158;SDS011;63175;52.374;13.132;2022-09-30T13:03:26;1.00;;;0.90;;
7158;SDS011;63175;52.374;13.132;2022-09-30T13:05:54;1.80;;;1.13;;
7158;SDS011;63175;52.374;13.132;2022-09-30T13:14:02;1.27;;;0.90;;
7158;SDS011;63175;52.374;13.132;2022-09-30T13:16:59;0.80;;;0.80;;
7158;SDS011;63175;52.374;13.132;2022-09-30T13:19:42;2.53;;;1.00;;
7158;SDS011;63175;52.374;13.132;2022-09-30T13:25:18;5.00;;;1.27;;
7158;SDS011;63175;52.374;13.132;2022-09-30T13:27:45;0.73;;;0.73;;
7158;SDS011;63175;52.374;13.132;2022-09-30T13:30:31;1.33;;;1.00;;
7158;SDS011;63175;52.374;13.132;2022-09-30T13:33:04;1.30;;;0.80;;
7158;SDS011;63175;52.374;13.132;2022-09-30T13:35:48;1.10;;;0.90;;
7158;SDS011;63175;52.374;13.132;2022-09-30T13:38:17;1.63;;;0.97;;
7158;SDS011;63175;52.374;13.132;2022-09-30T13:40:50;1.40;;;1.10;;
7158;SDS011;63175;52.374;13.132;2022-09-30T13:43:23;0.90;;;0.80;;
7158;SDS011;63175;52.374;13.132;2022-09-30T13:45:54;1.03;;;1.00;;
7158;SDS011;63175;52.374;13.132;2022-09-30T13:48:24;1.00;;;0.90;;
7158;SDS011;63175;52.374;13.132;2022-09-30T13:50:55;1.63;;;1.07;;
7158;SDS011;63175;52.374;13.132;2022-09-30T13:53:26;2.00;;;1.43;;
7158;SDS011;63175;52.374;13.132;2022-09-30T13:55:57;1.47;;;1.10;;
7158;SDS011;63175;52.374;13.132;2022-09-30T14:01:42;2.17;;;1.00;;
7158;SDS011;63175;52.374;13.132;2022-09-30T14:04:34;1.97;;;1.70;;
7158;SDS011;63175;52.374;13.132;2022-09-30T14:07:23;1.47;;;1.20;;
7158;SDS011;63175;52.374;13.132;2022-09-30T14:10:14;1.27;;;1.17;;
7158;SDS011;63175;52.374;13.132;2022-09-30T14:13:15;1.63;;;0.90;;
7158;SDS011;63175;52.374;13.132;2022-09-30T14:15:57;0.73;;;0.67;;
7158;SDS011;63175;52.374;13.132;2022-09-30T14:18:42;1.47;;;1.00;;
7158;SDS011;63175;52.374;13.132;2022-09-30T14:21:33;2.07;;;1.00;;
7158;SDS011;63175;52.374;13.132;2022-09-30T14:24:09;1.37;;;1.03;;
7158;SDS011;63175;52.374;13.132;2022-09-30T14:29:42;1.90;;;1.20;;
7158;SDS011;63175;52.374;13.132;2022-09-30T14:32:19;0.90;;;0.90;;
7158;SDS011;63175;52.374;13.132;2022-09-30T14:34:53;1.30;;;0.87;;
7158;SDS011;63175;52.374;13.132;2022-09-30T14:37:22;1.50;;;1.20;;
7158;SDS011;63175;52.374;13.132;2022-09-30T14:39:53;4.63;;;1.00;;
7158;SDS011;63175;52.374;13.132;2022-09-30T14:42:22;3.07;;;0.83;;
7158;SDS011;63175;52.374;13.132;2022-09-30T14:44:55;0.90;;;0.80;;
7158;SDS011;63175;52.374;13.132;2022-09-30T14:47:28;2.30;;;1.10;;
7158;SDS011;63175;52.374;13.132;2022-09-30T14:49:56;0.90;;;0.80;;
7158;SDS011;63175;52.374;13.132;2022-09-30T14:52:35;1.23;;;0.77;;
7158;SDS011;63175;52.374;13.132;2022-09-30T14:55:03;1.73;;;1.10;;
7158;SDS011;63175;52.374;13.132;2022-09-30T14:57:47;1.20;;;1.10;;
7158;SDS011;63175;52.374;13.132;2022-09-30T15:00:19;0.80;;;0.80;;
7158;SDS011;63175;52.374;13.132;2022-09-30T15:02:50;1.63;;;0.97;;
7158;SDS011;63175;52.374;13.132;2022-09-30T15:05:17;5.20;;;1.40;;
7158;SDS011;63175;52.374;13.132;2022-09-30T15:07:44;0.90;;;0.90;;
7158;SDS011;63175;52.374;13.132;2022-09-30T15:10:15;1.10;;;1.00;;
7158;SDS011;63175;52.374;13.132;2022-09-30T15:12:43;1.20;;;0.70;;
7158;SDS011;63175;52.374;13.132;2022-09-30T15:15:25;1.57;;;1.20;;
7158;SDS011;63175;52.374;13.132;2022-09-30T15:17:58;3.90;;;1.57;;
7158;SDS011;63175;52.374;13.132;2022-09-30T15:20:27;3.67;;;1.23;;
7158;SDS011;63175;52.374;13.132;2022-09-30T15:22:56;1.37;;;1.27;;
7158;SDS011;63175;52.374;13.132;2022-09-30T15:25:27;2.13;;;2.00;;
7158;SDS011;63175;52.374;13.132;2022-09-30T15:27:55;3.60;;;2.90;;
7158;SDS011;63175;52.374;13.132;2022-09-30T15:30:24;2.20;;;2.10;;
7158;SDS011;63175;52.374;13.132;2022-09-30T15:33:00;1.60;;;1.50;;
7158;SDS011;63175;52.374;13.132;2022-09-30T15:35:29;1.70;;;1.60;;
7158;SDS011;63175;52.374;13.132;2022-09-30T15:38:04;3.37;;;1.53;;